createdAt,value
2018-11-11T00:01:41.837Z,92.62
2018-11-11T00:04:15.492Z,92.72
2018-11-11T00:06:48.760Z,92.79
2018-11-11T00:09:22.018Z,92.91
2018-11-11T00:11:58.027Z,92.93
2018-11-11T00:14:32.432Z,92.86
2018-11-11T00:17:05.641Z,92.64
2018-11-11T00:19:39.835Z,92.61
2018-11-11T00:22:14.206Z,92.37
2018-11-11T00:24:46.785Z,92.28
2018-11-11T00:27:21.872Z,92.40
2018-11-11T00:29:56.065Z,92.19
2018-11-11T00:32:31.160Z,91.62
2018-11-11T00:35:03.321Z,92.08
2018-11-11T00:37:38.549Z,92.41
2018-11-11T00:40:12.576Z,92.14
2018-11-11T00:42:47.868Z,91.96
2018-11-11T00:45:22.051Z,92.25
2018-11-11T00:47:56.018Z,91.79
2018-11-11T00:50:29.151Z,91.92
2018-11-11T00:53:04.208Z,92.44
2018-11-11T00:55:41.505Z,92.14
2018-11-11T00:58:16.368Z,92.35
2018-11-11T01:00:51.446Z,92.13
2018-11-11T01:03:26.577Z,92.31
2018-11-11T01:05:59.746Z,92.17
2018-11-11T01:08:34.002Z,92.69
2018-11-11T01:11:06.925Z,91.96
2018-11-11T01:13:41.659Z,92.22
2018-11-11T01:16:17.291Z,91.85
2018-11-11T01:18:51.998Z,91.85
2018-11-11T01:21:25.260Z,92.21
2018-11-11T01:24:00.505Z,91.89
2018-11-11T01:26:34.163Z,91.92
2018-11-11T01:29:08.724Z,91.58
2018-11-11T01:31:43.548Z,91.54
2018-11-11T01:34:17.645Z,91.69
2018-11-11T01:36:50.940Z,92.00
2018-11-11T01:39:24.684Z,92.55
2018-11-11T01:42:00.838Z,92.57
2018-11-11T01:44:34.142Z,92.81
2018-11-11T01:47:08.084Z,92.32
2018-11-11T01:49:42.500Z,92.43
2018-11-11T01:52:16.963Z,92.01
2018-11-11T01:54:50.664Z,92.10
2018-11-11T01:57:26.945Z,92.40
2018-11-11T01:59:59.626Z,92.02
2018-11-11T02:02:33.888Z,91.62
2018-11-11T02:05:07.233Z,91.94
2018-11-11T02:07:41.377Z,92.23
2018-11-11T02:10:16.749Z,92.39
2018-11-11T02:12:50.738Z,92.22
2018-11-11T02:15:24.659Z,92.78
2018-11-11T02:17:58.315Z,92.68
2018-11-11T02:20:30.672Z,92.97
2018-11-11T02:23:02.602Z,93.38
2018-11-11T02:25:36.847Z,93.12
2018-11-11T02:28:11.968Z,93.58
2018-11-11T02:30:45.544Z,93.83
2018-11-11T02:33:18.611Z,94.03
2018-11-11T02:35:54.093Z,93.66
2018-11-11T02:38:27.956Z,94.10
2018-11-11T02:41:01.801Z,94.51
2018-11-11T02:43:37.792Z,94.40
2018-11-11T02:46:11.882Z,95.16
2018-11-11T02:48:45.149Z,94.87
2018-11-11T02:51:16.046Z,94.82
2018-11-11T02:53:48.475Z,95.10
2018-11-11T02:56:22.698Z,95.65
2018-11-11T02:58:57.413Z,96.20
2018-11-11T03:01:29.873Z,96.79
2018-11-11T03:04:03.169Z,98.04
2018-11-11T03:06:36.744Z,98.10
2018-11-11T03:09:13.657Z,97.58
2018-11-11T03:11:45.455Z,97.35
2018-11-11T03:14:18.710Z,97.05
2018-11-11T03:16:51.306Z,97.62
2018-11-11T03:19:23.676Z,98.02
2018-11-11T03:21:58.067Z,98.02
2018-11-11T03:24:33.566Z,98.01
2018-11-11T03:27:08.261Z,98.65
2018-11-11T03:29:41.090Z,98.58
2018-11-11T03:32:14.247Z,98.11
2018-11-11T03:34:48.659Z,99.20
2018-11-11T03:37:21.855Z,100.00
2018-11-11T03:40:00.371Z,100.00
2018-11-11T03:42:36.056Z,100.00
2018-11-11T03:45:11.382Z,99.79
2018-11-11T03:47:46.918Z,99.62
2018-11-11T03:50:20.091Z,100.00
2018-11-11T03:52:52.398Z,100.00
2018-11-11T03:55:27.935Z,100.00
2018-11-11T03:58:01.704Z,100.00
2018-11-11T04:00:35.542Z,100.00
2018-11-11T04:03:09.326Z,100.00
2018-11-11T04:05:43.465Z,100.00
2018-11-11T04:08:17.004Z,100.00
2018-11-11T04:10:50.066Z,100.00
2018-11-11T04:13:24.290Z,100.00
2018-11-11T04:15:57.378Z,100.00
2018-11-11T04:18:30.800Z,100.00
2018-11-11T04:21:02.255Z,100.00
2018-11-11T04:23:37.995Z,100.00
2018-11-11T04:26:12.954Z,100.00
2018-11-11T04:28:45.369Z,100.00
2018-11-11T04:31:18.729Z,100.00
2018-11-11T04:33:53.150Z,100.00
2018-11-11T04:36:26.250Z,100.00
2018-11-11T04:39:00.620Z,100.00
2018-11-11T04:41:34.897Z,100.00
2018-11-11T04:44:10.506Z,100.00
2018-11-11T04:46:45.909Z,100.00
2018-11-11T04:49:21.092Z,100.00
2018-11-11T04:51:55.166Z,100.00
2018-11-11T04:54:28.939Z,100.00
2018-11-11T04:57:01.356Z,100.00
2018-11-11T04:59:35.353Z,100.00
2018-11-11T05:02:10.398Z,100.00
2018-11-11T05:04:43.203Z,100.00
2018-11-11T05:07:18.568Z,100.00
2018-11-11T05:09:51.533Z,100.00
2018-11-11T05:12:26.729Z,100.00
2018-11-11T05:14:59.668Z,100.00
2018-11-11T05:17:34.074Z,100.00
2018-11-11T05:20:07.342Z,100.00
2018-11-11T05:22:42.657Z,100.00
2018-11-11T05:25:17.128Z,100.00
2018-11-11T05:27:52.063Z,100.00
2018-11-11T05:30:26.176Z,99.74
2018-11-11T05:32:59.468Z,99.71
2018-11-11T05:35:33.335Z,100.00
2018-11-11T05:38:06.006Z,99.95
2018-11-11T05:40:41.288Z,100.00
2018-11-11T05:43:11.546Z,100.00
2018-11-11T05:45:46.269Z,99.65
2018-11-11T05:48:19.159Z,99.81
2018-11-11T05:50:52.325Z,99.28
2018-11-11T05:53:28.884Z,99.21
2018-11-11T05:56:02.356Z,98.83
2018-11-11T05:58:34.745Z,98.59
2018-11-11T06:01:08.175Z,98.16
2018-11-11T06:03:41.790Z,98.04
2018-11-11T06:06:15.479Z,97.75
2018-11-11T06:08:47.194Z,97.80
2018-11-11T06:11:24.300Z,97.50
2018-11-11T06:13:57.746Z,96.78
2018-11-11T06:16:33.038Z,96.52
2018-11-11T06:19:06.922Z,96.19
2018-11-11T06:21:39.747Z,95.71
2018-11-11T06:24:14.832Z,95.67
2018-11-11T06:26:49.750Z,95.11
2018-11-11T06:29:24.250Z,94.94
2018-11-11T06:31:57.447Z,94.33
2018-11-11T06:34:31.081Z,93.86
2018-11-11T06:37:05.077Z,94.00
2018-11-11T06:39:39.601Z,93.41
2018-11-11T06:42:12.596Z,93.13
2018-11-11T06:44:47.063Z,93.00
2018-11-11T06:47:20.269Z,92.71
2018-11-11T06:49:54.854Z,92.43
2018-11-11T06:52:29.292Z,92.12
2018-11-11T06:55:00.622Z,92.48
2018-11-11T06:57:32.824Z,92.18
2018-11-11T07:00:06.222Z,91.53
2018-11-11T07:02:41.544Z,91.49
2018-11-11T07:05:15.083Z,90.82
2018-11-11T07:07:48.265Z,90.36
2018-11-11T07:10:21.225Z,90.36
2018-11-11T07:12:56.996Z,90.17
2018-11-11T07:15:30.848Z,89.54
2018-11-11T07:18:02.919Z,89.40
2018-11-11T07:20:38.235Z,89.50
2018-11-11T07:23:11.471Z,89.79
2018-11-11T07:25:46.624Z,90.50
2018-11-11T07:28:22.010Z,90.25
2018-11-11T07:30:54.785Z,89.96
2018-11-11T07:33:29.169Z,90.21
2018-11-11T07:36:03.352Z,90.02
2018-11-11T07:38:37.606Z,89.82
2018-11-11T07:41:13.138Z,90.35
2018-11-11T07:43:45.355Z,90.11
2018-11-11T07:46:20.635Z,90.07
2018-11-11T07:48:53.699Z,90.05
2018-11-11T07:51:28.058Z,89.40
2018-11-11T07:54:02.698Z,89.94
2018-11-11T07:56:35.859Z,89.26
2018-11-11T07:59:10.373Z,88.96
2018-11-11T08:01:44.576Z,88.73
2018-11-11T08:04:19.014Z,88.67
2018-11-11T08:06:52.758Z,88.04
2018-11-11T08:09:28.187Z,87.27
2018-11-11T08:12:02.749Z,88.02
2018-11-11T08:14:35.945Z,87.52
2018-11-11T08:17:11.562Z,87.60
2018-11-11T08:19:44.262Z,87.99
2018-11-11T08:22:19.812Z,88.22
2018-11-11T08:24:53.824Z,88.06
2018-11-11T08:27:27.314Z,87.96
2018-11-11T08:30:01.067Z,86.98
2018-11-11T08:32:35.455Z,87.77
2018-11-11T08:35:09.766Z,87.16
2018-11-11T08:37:44.345Z,86.84
2018-11-11T08:40:18.368Z,86.68
2018-11-11T08:42:52.532Z,87.10
2018-11-11T08:45:26.900Z,86.77
2018-11-11T08:48:00.735Z,86.16
2018-11-11T08:50:34.566Z,85.82
2018-11-11T08:53:09.204Z,83.33
2018-11-11T08:55:46.291Z,83.06
2018-11-11T08:58:20.310Z,83.01
2018-11-11T09:00:55.424Z,84.39
2018-11-11T09:03:28.864Z,84.86
2018-11-11T09:06:00.316Z,84.47
2018-11-11T09:08:33.343Z,84.92
2018-11-11T09:11:07.280Z,85.20
2018-11-11T09:13:41.865Z,85.53
2018-11-11T09:16:15.459Z,85.33
2018-11-11T09:18:48.836Z,85.13
2018-11-11T09:21:24.029Z,85.31
2018-11-11T09:23:58.299Z,85.62
2018-11-11T09:26:33.105Z,85.78
2018-11-11T09:29:07.046Z,85.70
2018-11-11T09:31:42.161Z,85.71
2018-11-11T09:34:16.129Z,84.99
2018-11-11T09:36:49.105Z,83.03
2018-11-11T09:39:23.222Z,81.76
2018-11-11T09:41:56.132Z,81.24
2018-11-11T09:44:29.701Z,76.75
2018-11-11T09:47:01.856Z,74.92
2018-11-11T09:49:35.798Z,75.68
2018-11-11T09:52:08.633Z,74.29
2018-11-11T09:54:44.681Z,72.60
2018-11-11T09:57:18.143Z,72.26
2018-11-11T09:59:51.547Z,69.70
2018-11-11T10:02:22.791Z,68.91
2018-11-11T10:04:58.154Z,69.25
2018-11-11T10:07:36.447Z,68.53
2018-11-11T10:10:18.531Z,68.06
2018-11-11T10:13:02.615Z,67.80
2018-11-11T10:15:58.437Z,69.08
2018-11-11T10:18:40.335Z,67.00
2018-11-11T10:21:55.580Z,66.22
2018-11-11T10:24:33.781Z,67.19
2018-11-11T10:27:11.017Z,67.12
2018-11-11T10:29:49.798Z,64.38
2018-11-11T10:32:37.437Z,65.94
2018-11-11T10:36:16.120Z,69.64
2018-11-11T10:40:58.785Z,73.88
2018-11-11T10:43:41.171Z,76.48
2018-11-11T10:46:26.318Z,77.74
2018-11-11T10:49:03.956Z,78.42
2018-11-11T10:51:38.550Z,78.89
2018-11-11T10:54:12.830Z,78.51
2018-11-11T10:56:48.275Z,79.03
2018-11-11T10:59:21.897Z,78.54
2018-11-11T11:02:00.143Z,78.76
2018-11-11T11:04:34.054Z,79.05
2018-11-11T11:07:08.784Z,78.61
2018-11-11T11:09:49.057Z,80.43
2018-11-11T11:12:25.195Z,81.24
2018-11-11T11:15:00.177Z,80.67
2018-11-11T11:17:36.393Z,81.28
2018-11-11T11:20:09.972Z,82.12
2018-11-11T11:22:44.723Z,82.20
2018-11-11T11:25:20.161Z,82.13
2018-11-11T11:27:55.266Z,81.36
2018-11-11T11:30:28.256Z,80.93
2018-11-11T11:33:01.996Z,81.31
2018-11-11T11:35:35.706Z,80.42
2018-11-11T11:38:09.242Z,80.24
2018-11-11T11:40:46.017Z,80.11
2018-11-11T11:43:19.288Z,79.05
2018-11-11T11:45:53.548Z,78.83
2018-11-11T11:48:26.926Z,78.58
2018-11-11T11:51:01.033Z,77.28
2018-11-11T11:53:36.067Z,77.73
2018-11-11T11:56:10.789Z,76.49
2018-11-11T11:58:45.858Z,75.40
2018-11-11T12:01:19.081Z,74.77
2018-11-11T12:03:54.497Z,74.90
2018-11-11T12:06:31.163Z,75.60
2018-11-11T12:09:07.214Z,75.55
2018-11-11T12:11:41.601Z,75.29
2018-11-11T12:14:15.000Z,74.63
2018-11-11T12:16:49.223Z,73.91
2018-11-11T12:19:23.485Z,72.68
2018-11-11T12:21:56.410Z,71.39
2018-11-11T12:24:29.052Z,71.20
2018-11-11T12:27:01.559Z,69.24
2018-11-11T12:29:35.406Z,69.52
2018-11-11T12:32:11.180Z,67.38
2018-11-11T12:34:46.653Z,65.53
2018-11-11T12:37:21.388Z,64.84
2018-11-11T12:39:56.762Z,62.98
2018-11-11T12:42:30.373Z,62.26
2018-11-11T12:45:03.165Z,60.36
2018-11-11T12:47:36.943Z,63.42
2018-11-11T12:50:11.917Z,61.03
2018-11-11T12:52:45.345Z,62.95
2018-11-11T12:55:20.549Z,62.11
2018-11-11T12:57:54.796Z,63.19
2018-11-11T13:00:28.447Z,63.51
2018-11-11T13:02:59.785Z,63.82
2018-11-11T13:05:34.059Z,64.64
2018-11-11T13:08:09.065Z,65.26
2018-11-11T13:10:44.764Z,65.62
2018-11-11T13:13:19.095Z,65.53
2018-11-11T13:15:52.220Z,65.56
2018-11-11T13:18:27.134Z,65.15
2018-11-11T13:20:59.704Z,64.78
2018-11-11T13:23:36.504Z,63.74
2018-11-11T13:26:12.891Z,63.74
2018-11-11T13:28:47.039Z,63.01
2018-11-11T13:32:23.302Z,62.96
2018-11-11T13:34:58.166Z,61.67
2018-11-11T13:37:32.255Z,60.03
2018-11-11T13:40:06.664Z,61.90
2018-11-11T13:42:41.515Z,63.65
2018-11-11T13:45:17.792Z,63.95
2018-11-11T13:47:52.670Z,64.87
2018-11-11T13:50:27.883Z,67.01
2018-11-11T13:53:05.247Z,66.63
2018-11-11T13:55:41.331Z,66.67
2018-11-11T13:58:14.082Z,66.42
2018-11-11T14:00:46.303Z,67.21
2018-11-11T14:03:20.322Z,67.06
2018-11-11T14:05:54.624Z,66.97
2018-11-11T14:08:28.303Z,65.90
2018-11-11T14:11:00.901Z,64.83
2018-11-11T14:13:35.051Z,63.41
2018-11-11T14:16:04.619Z,62.70
2018-11-11T14:18:38.613Z,62.81
2018-11-11T14:21:10.166Z,64.22
2018-11-11T14:23:43.611Z,63.67
2018-11-11T14:26:17.468Z,65.36
2018-11-11T14:28:50.981Z,65.83
2018-11-11T14:31:24.736Z,66.73
2018-11-11T14:33:58.233Z,67.19
2018-11-11T14:36:32.434Z,67.75
2018-11-11T14:39:05.539Z,67.90
2018-11-11T14:41:40.128Z,69.18
2018-11-11T14:44:15.143Z,68.72
2018-11-11T14:46:48.062Z,69.70
2018-11-11T14:49:17.323Z,70.04
2018-11-11T14:51:46.381Z,70.84
2018-11-11T14:54:15.257Z,71.65
2018-11-11T14:56:44.211Z,71.31
2018-11-11T14:59:13.196Z,72.37
2018-11-11T15:01:42.192Z,72.78
2018-11-11T15:04:11.206Z,73.70
2018-11-11T15:06:40.156Z,74.44
2018-11-11T15:09:10.574Z,75.11
2018-11-11T15:11:40.081Z,75.57
2018-11-11T15:14:09.197Z,76.89
2018-11-11T15:16:38.192Z,77.11
2018-11-11T15:19:07.245Z,77.73
2018-11-11T15:21:36.095Z,77.84
2018-11-11T15:24:05.575Z,78.95
2018-11-11T15:26:34.537Z,79.18
2018-11-11T15:29:03.485Z,80.29
2018-11-11T15:31:32.477Z,80.41
2018-11-11T15:34:01.525Z,80.87
2018-11-11T15:36:31.108Z,80.96
2018-11-11T15:39:00.153Z,81.04
2018-11-11T15:41:29.076Z,82.21
2018-11-11T15:43:58.074Z,82.12
2018-11-11T15:46:27.129Z,81.97
2018-11-11T15:48:56.050Z,82.25
2018-11-11T15:51:24.995Z,83.06
2018-11-11T15:53:53.933Z,83.40
2018-11-11T15:56:22.957Z,83.74
2018-11-11T15:58:51.876Z,83.21
2018-11-11T16:01:20.845Z,83.10
2018-11-11T16:03:49.798Z,83.45
2018-11-11T16:06:18.807Z,84.19
2018-11-11T16:08:47.728Z,83.96
2018-11-11T16:11:17.714Z,83.69
2018-11-11T16:13:46.664Z,84.87
2018-11-11T16:16:15.661Z,85.15
2018-11-11T16:18:44.605Z,85.33
2018-11-11T16:21:13.605Z,85.49
2018-11-11T16:23:42.658Z,85.35
2018-11-11T16:26:11.593Z,85.15
2018-11-11T16:28:42.783Z,85.75
2018-11-11T16:31:13.583Z,85.36
2018-11-11T16:33:45.498Z,85.60
2018-11-11T16:36:17.651Z,86.15
2018-11-11T16:38:48.499Z,85.70
2018-11-11T16:41:17.932Z,85.33
2018-11-11T16:43:49.608Z,85.67
2018-11-11T16:46:21.136Z,86.08
2018-11-11T16:48:50.929Z,85.65
2018-11-11T16:51:22.382Z,86.52
2018-11-11T16:53:53.771Z,86.09
2018-11-11T16:56:25.680Z,86.66
2018-11-11T16:58:54.606Z,86.90
2018-11-11T17:01:23.553Z,87.00
2018-11-11T17:03:52.503Z,87.32
2018-11-11T17:06:21.450Z,87.50
2018-11-11T17:08:53.950Z,87.15
2018-11-11T17:11:25.408Z,88.03
2018-11-11T17:13:56.546Z,87.60
2018-11-11T17:16:27.828Z,88.04
2018-11-11T17:18:58.633Z,88.86
2018-11-11T17:21:28.123Z,88.56
2018-11-11T17:23:59.691Z,88.92
2018-11-11T17:26:32.161Z,88.72
2018-11-11T17:29:03.476Z,89.04
2018-11-11T17:31:34.202Z,89.50
2018-11-11T17:34:06.965Z,89.71
2018-11-11T17:36:36.484Z,89.65
2018-11-11T17:39:12.097Z,89.82
2018-11-11T17:41:44.317Z,90.09
2018-11-11T17:44:15.602Z,89.83
2018-11-11T17:46:48.507Z,90.39
2018-11-11T17:49:20.296Z,90.47
2018-11-11T17:51:49.269Z,90.62
2018-11-11T17:54:18.418Z,90.39
2018-11-11T17:56:51.869Z,90.40
2018-11-11T17:59:21.138Z,90.39
2018-11-11T18:01:50.129Z,90.48
2018-11-11T18:04:19.089Z,90.11
2018-11-11T18:06:48.034Z,90.38
2018-11-11T18:09:17.089Z,89.85
2018-11-11T18:11:46.072Z,90.25
2018-11-11T18:14:16.218Z,89.92
2018-11-11T18:16:45.170Z,89.99
2018-11-11T18:19:14.313Z,89.85
2018-11-11T18:21:44.433Z,89.73
2018-11-11T18:24:13.450Z,89.73
2018-11-11T18:26:42.542Z,90.54
2018-11-11T18:29:11.519Z,91.18
2018-11-11T18:31:40.538Z,91.01
2018-11-11T18:34:09.505Z,91.29
2018-11-11T18:36:38.483Z,91.06
2018-11-11T18:39:09.380Z,91.27
2018-11-11T18:41:38.556Z,91.21
2018-11-11T18:44:07.596Z,90.98
2018-11-11T18:46:36.823Z,91.25
2018-11-11T18:49:07.706Z,90.80
2018-11-11T18:51:37.029Z,91.52
2018-11-11T18:54:05.974Z,91.61
2018-11-11T18:56:35.160Z,91.53
2018-11-11T18:59:04.143Z,91.61
2018-11-11T19:01:33.289Z,91.54
2018-11-11T19:04:02.313Z,91.81
2018-11-11T19:06:31.625Z,91.79
2018-11-11T19:09:00.549Z,91.68
2018-11-11T19:11:29.567Z,91.35
2018-11-11T19:13:58.631Z,90.84
2018-11-11T19:16:27.786Z,91.42
2018-11-11T19:18:56.831Z,91.76
2018-11-11T19:21:25.721Z,91.89
2018-11-11T19:23:55.104Z,91.61
2018-11-11T19:26:24.087Z,91.41
2018-11-11T19:28:53.025Z,91.26
2018-11-11T19:31:21.983Z,91.82
2018-11-11T19:33:51.287Z,91.66
2018-11-11T19:36:20.238Z,91.45
2018-11-11T19:38:49.140Z,91.92
2018-11-11T19:41:21.141Z,92.21
2018-11-11T19:43:51.841Z,92.50
2018-11-11T19:46:23.207Z,91.97
2018-11-11T19:48:52.377Z,92.10
2018-11-11T19:51:21.356Z,92.62
2018-11-11T19:53:50.397Z,92.54
2018-11-11T19:56:19.446Z,92.66
2018-11-11T19:58:48.833Z,92.82
2018-11-11T20:01:21.015Z,92.89
2018-11-11T20:03:50.591Z,92.37
2018-11-11T20:06:19.597Z,92.02
2018-11-11T20:08:48.532Z,91.97
2018-11-11T20:11:17.522Z,91.88
2018-11-11T20:13:46.652Z,92.41
2018-11-11T20:16:15.605Z,92.23
2018-11-11T20:18:44.536Z,92.55
2018-11-11T20:21:13.747Z,92.60
2018-11-11T20:23:42.768Z,92.58
2018-11-11T20:26:11.750Z,92.76
2018-11-11T20:28:40.722Z,92.39
2018-11-11T20:31:09.692Z,92.46
2018-11-11T20:33:38.816Z,92.36
2018-11-11T20:36:07.762Z,92.54
2018-11-11T20:38:36.721Z,92.47
2018-11-11T20:41:05.926Z,92.36
2018-11-11T20:43:35.128Z,92.81
2018-11-11T20:46:04.317Z,91.77
2018-11-11T20:48:33.499Z,92.11
2018-11-11T20:51:02.452Z,92.04
2018-11-11T20:53:31.435Z,92.13
2018-11-11T20:56:00.498Z,92.28
2018-11-11T20:58:29.365Z,91.93
2018-11-11T21:01:00.572Z,91.13
2018-11-11T21:03:34.626Z,91.84
2018-11-11T21:06:09.036Z,92.38
2018-11-11T21:08:42.060Z,92.28
2018-11-11T21:11:15.867Z,91.46
2018-11-11T21:13:48.928Z,91.76
2018-11-11T21:16:24.601Z,91.95
2018-11-11T21:18:58.121Z,91.41
2018-11-11T21:21:31.776Z,91.47
2018-11-11T21:24:05.262Z,90.75
2018-11-11T21:26:39.736Z,91.13
2018-11-11T21:29:14.275Z,91.07
2018-11-11T21:31:49.114Z,91.11
2018-11-11T21:34:23.230Z,91.91
2018-11-11T21:36:57.058Z,91.60
2018-11-11T21:39:33.346Z,91.47
2018-11-11T21:42:08.331Z,91.78
2018-11-11T21:44:44.962Z,91.30
2018-11-11T21:47:20.090Z,91.69
2018-11-11T21:49:52.788Z,92.27
2018-11-11T21:52:29.170Z,92.20
2018-11-11T21:55:04.940Z,92.50
2018-11-11T21:57:40.401Z,91.71
2018-11-11T22:00:22.296Z,91.02
2018-11-11T22:02:57.594Z,91.19
2018-11-11T22:05:31.202Z,91.18
2018-11-11T22:08:05.239Z,91.35
2018-11-11T22:10:37.756Z,91.36
2018-11-11T22:13:11.075Z,90.75
2018-11-11T22:15:44.228Z,91.00
2018-11-11T22:18:17.115Z,91.21
2018-11-11T22:20:51.141Z,90.61
2018-11-11T22:23:28.795Z,90.55
2018-11-11T22:26:02.152Z,90.55
2018-11-11T22:28:37.675Z,90.86
2018-11-11T22:31:12.333Z,90.20
2018-11-11T22:33:47.573Z,90.28
2018-11-11T22:36:22.403Z,90.17
2018-11-11T22:38:57.267Z,90.47
2018-11-11T22:41:32.910Z,90.14
2018-11-11T22:44:07.628Z,89.72
2018-11-11T22:46:40.766Z,90.85
2018-11-11T22:49:16.562Z,91.25
2018-11-11T22:51:50.309Z,91.38
2018-11-11T22:54:19.753Z,90.45
2018-11-11T22:56:54.786Z,91.15
2018-11-11T22:59:30.335Z,90.85
2018-11-11T23:02:00.417Z,91.11
2018-11-11T23:04:35.654Z,90.86
2018-11-11T23:07:09.641Z,91.70
2018-11-11T23:09:43.543Z,92.16
2018-11-11T23:12:18.361Z,91.88
2018-11-11T23:14:51.948Z,91.29
2018-11-11T23:17:25.833Z,91.37
2018-11-11T23:19:59.743Z,91.73
2018-11-11T23:22:33.613Z,92.27
2018-11-11T23:25:05.907Z,92.83
2018-11-11T23:27:39.333Z,93.38
2018-11-11T23:30:18.050Z,93.93
2018-11-11T23:32:50.990Z,94.80
2018-11-11T23:35:27.013Z,93.66
2018-11-11T23:37:59.962Z,92.96
2018-11-11T23:40:34.517Z,93.78
2018-11-11T23:43:09.199Z,94.63
2018-11-11T23:45:44.948Z,95.13
2018-11-11T23:48:20.866Z,95.55
2018-11-11T23:50:54.085Z,94.65
2018-11-11T23:53:27.921Z,96.04
2018-11-11T23:56:02.184Z,99.26
2018-11-11T23:58:36.323Z,99.00
